Time;durP1;ratioP1;P1;durP2;ratioP2;P2;SDS_P1;SDS_P2;PMS_P1;PMS_P2;Temp;Humidity;BMP_temperature;BMP_pressure;BME280_temperature;BME280_humidity;BME280_pressure;Samples;Min_cycle;Max_cycle;Signal;HPM_P1;HPM_P2
2023/04/07 00:02:14;;;;;;;;;;;;;;;20.37;30.90;100536.35;103870;1292;61470;-83
2023/04/07 00:04:40;;;;;;;;;;;;;;;20.37;30.89;100535.08;103814;1291;74386;-83
2023/04/07 00:07:06;;;;;;;;;;;;;;;20.37;30.93;100531.71;103727;1300;61390;-83
2023/04/07 00:09:32;;;;;;;;;;;;;;;20.36;30.89;100531.94;103715;1286;61308;-83
2023/04/07 00:11:57;;;;;;;;;;;;;;;20.37;30.80;100532.98;103743;1292;61403;-84
2023/04/07 00:14:23;;;;;;;;;;;;;;;20.36;30.82;100536.06;103588;1295;61474;-83
2023/04/07 00:16:50;;;;;;;;;;;;;;;20.36;30.83;100534.83;103832;1286;61387;-84
2023/04/07 00:19:16;;;;;;;;;;;;;;;20.36;30.77;100539.14;103793;1291;61314;-83
2023/04/07 00:21:43;;;;;;;;;;;;;;;20.36;30.76;100538.61;103681;1292;61416;-84
2023/04/07 00:24:09;;;;;;;;;;;;;;;20.36;30.63;100537.00;103733;1292;61337;-82
2023/04/07 00:26:34;;;;;;;;;;;;;;;20.35;30.60;100537.61;103545;1292;61327;-84
2023/04/07 00:29:00;;;;;;;;;;;;;;;20.35;30.68;100533.86;103783;1286;61378;-83
2023/04/07 00:31:25;;;;;;;;;;;;;;;20.35;30.68;100534.02;103711;1286;61476;-83
2023/04/07 00:33:51;;;;;;;;;;;;;;;20.35;30.63;100535.30;103794;1291;61474;-82
2023/04/07 00:36:17;;;;;;;;;;;;;;;20.34;30.67;100531.92;103774;1292;72719;-83
2023/04/07 00:38:43;;;;;;;;;;;;;;;20.34;30.57;100531.41;103779;1291;61314;-83
2023/04/07 00:41:08;;;;;;;;;;;;;;;20.34;30.56;100531.23;103706;1291;61452;-82
2023/04/07 00:43:34;;;;;;;;;;;;;;;20.34;30.56;100528.93;103771;1293;61355;-83
2023/04/07 00:46:00;;;;;;;;;;;;;;;20.34;30.55;100531.04;103727;1287;61381;-84
2023/04/07 00:48:25;;;;;;;;;;;;;;;20.34;30.43;100530.36;103817;1292;61334;-83
2023/04/07 00:50:51;;;;;;;;;;;;;;;20.33;30.46;100535.74;103664;1286;75640;-83
2023/04/07 00:53:16;;;;;;;;;;;;;;;20.33;30.43;100533.80;103769;1286;62481;-84
2023/04/07 00:55:42;;;;;;;;;;;;;;;20.33;30.41;100536.15;103605;1292;61285;-84
2023/04/07 00:58:08;;;;;;;;;;;;;;;20.33;30.43;100535.73;103640;1292;61394;-83
2023/04/07 01:00:35;;;;;;;;;;;;;;;20.32;30.36;100535.44;103750;1292;61400;-84
2023/04/07 01:03:05;;;;;;;;;;;;;;;20.32;30.37;100534.23;103732;1291;61503;-83
2023/04/07 01:05:36;;;;;;;;;;;;;;;20.32;30.27;100536.54;103771;1292;61320;-83
2023/04/07 01:08:21;;;;;;;;;;;;;;;20.32;30.26;100535.51;103706;1291;73509;-83
2023/04/07 01:10:56;;;;;;;;;;;;;;;20.31;30.23;100533.02;103622;1292;75641;-83
2023/04/07 01:13:23;;;;;;;;;;;;;;;20.31;30.21;100530.17;103763;1286;61844;-83
2023/04/07 01:15:51;;;;;;;;;;;;;;;20.31;30.25;100530.36;103822;1289;61381;-83
2023/04/07 01:18:22;;;;;;;;;;;;;;;20.31;30.18;100529.09;103825;1291;72770;-83
2023/04/07 01:20:49;;;;;;;;;;;;;;;20.31;30.15;100529.31;103776;1290;74576;-83
2023/04/07 01:23:17;;;;;;;;;;;;;;;20.31;30.16;100526.63;103732;1286;61335;-82
2023/04/07 01:25:56;;;;;;;;;;;;;;;20.30;30.35;100527.02;103587;1292;61849;-83
2023/04/07 01:28:27;;;;;;;;;;;;;;;20.30;30.13;100527.08;103687;1286;73660;-84
2023/04/07 01:30:53;;;;;;;;;;;;;;;20.30;30.20;100524.39;103750;1288;74775;-82
2023/04/07 01:33:19;;;;;;;;;;;;;;;20.30;30.14;100521.19;103624;1292;61329;-84
2023/04/07 01:35:45;;;;;;;;;;;;;;;20.29;30.16;100516.02;103782;1289;61394;-84
2023/04/07 01:38:11;;;;;;;;;;;;;;;20.29;30.06;100514.97;103750;1291;61342;-83
2023/04/07 01:40:36;;;;;;;;;;;;;;;20.29;30.12;100513.91;103745;1291;61480;-83
2023/04/07 01:43:02;;;;;;;;;;;;;;;20.29;29.95;100517.65;103766;1291;61403;-84
2023/04/07 01:45:27;;;;;;;;;;;;;;;20.29;29.94;100514.84;103704;1291;61394;-83
2023/04/07 01:47:53;;;;;;;;;;;;;;;20.29;29.83;100515.20;103716;1292;61406;-83
2023/04/07 01:50:18;;;;;;;;;;;;;;;20.29;30.05;100514.46;103589;1292;62462;-83
2023/04/07 01:52:45;;;;;;;;;;;;;;;20.28;29.95;100515.39;103724;1286;61288;-83
2023/04/07 01:55:10;;;;;;;;;;;;;;;20.28;29.82;100512.88;103905;1286;62527;-84
2023/04/07 01:57:36;;;;;;;;;;;;;;;20.28;29.93;100510.39;103792;1291;61342;-83
2023/04/07 02:00:03;;;;;;;;;;;;;;;20.28;30.05;100509.52;103793;1287;61369;-82
2023/04/07 02:02:28;;;;;;;;;;;;;;;20.28;29.81;100510.92;103763;1286;61300;-83
2023/04/07 02:05:03;;;;;;;;;;;;;;;20.28;29.89;100512.55;103819;1289;61432;-82
2023/04/07 02:07:47;;;;;;;;;;;;;;;20.28;29.93;100508.05;103785;1285;61413;-83
2023/04/07 02:10:14;;;;;;;;;;;;;;;20.28;29.85;100506.83;103762;1292;61388;-84
2023/04/07 02:12:40;;;;;;;;;;;;;;;20.28;29.77;100505.42;103736;1292;72291;-83
2023/04/07 02:15:11;;;;;;;;;;;;;;;20.28;29.87;100504.50;103706;1286;75634;-84
2023/04/07 02:17:38;;;;;;;;;;;;;;;20.28;29.98;100504.86;103655;1292;62455;-83
2023/04/07 02:20:05;;;;;;;;;;;;;;;20.28;29.91;100501.48;104139;1291;61512;-82
2023/04/07 02:22:31;;;;;;;;;;;;;;;20.28;29.99;100508.64;103782;1286;61340;-84
2023/04/07 02:24:56;;;;;;;;;;;;;;;20.29;29.73;100506.41;103777;1288;61669;-83
2023/04/07 02:27:22;;;;;;;;;;;;;;;20.28;29.99;100508.42;103762;1292;62534;-83
2023/04/07 02:29:47;;;;;;;;;;;;;;;20.28;29.81;100509.49;103905;1291;61384;-83
2023/04/07 02:32:13;;;;;;;;;;;;;;;20.28;29.86;100510.91;103691;1292;61297;-83
2023/04/07 02:34:39;;;;;;;;;;;;;;;20.28;29.80;100513.41;103889;1289;61352;-84
2023/04/07 02:37:05;;;;;;;;;;;;;;;20.28;29.80;100511.85;103740;1286;62016;-83
2023/04/07 02:39:30;;;;;;;;;;;;;;;20.28;29.87;100515.76;103809;1292;61390;-83
2023/04/07 02:41:55;;;;;;;;;;;;;;;20.28;29.82;100520.05;103676;1292;61412;-83
2023/04/07 02:44:21;;;;;;;;;;;;;;;20.28;29.95;100517.55;103686;1291;61470;-83
2023/04/07 02:46:47;;;;;;;;;;;;;;;20.28;29.88;100516.48;103734;1292;61381;-83
2023/04/07 02:49:12;;;;;;;;;;;;;;;20.28;29.95;100519.01;103753;1286;61387;-83
2023/04/07 02:51:38;;;;;;;;;;;;;;;20.27;29.91;100519.54;103773;1289;62532;-83
2023/04/07 02:54:03;;;;;;;;;;;;;;;20.27;30.05;100519.04;103769;1286;61380;-83
2023/04/07 02:56:30;;;;;;;;;;;;;;;20.27;29.89;100519.02;103627;1286;61769;-82
2023/04/07 02:58:55;;;;;;;;;;;;;;;20.28;30.04;100519.67;103762;1292;61386;-83
2023/04/07 03:01:21;;;;;;;;;;;;;;;20.29;29.98;100520.90;103833;1286;61410;-83
2023/04/07 03:03:47;;;;;;;;;;;;;;;20.30;30.09;100522.98;103770;1291;61286;-83
2023/04/07 03:06:13;;;;;;;;;;;;;;;20.30;30.14;100523.27;103817;1289;61371;-83
2023/04/07 03:08:38;;;;;;;;;;;;;;;20.31;30.22;100523.59;103798;1291;61419;-83
2023/04/07 03:11:04;;;;;;;;;;;;;;;20.32;30.25;100529.40;103861;1286;62546;-83
2023/04/07 03:13:30;;;;;;;;;;;;;;;20.32;30.09;100529.58;103877;1291;61848;-83
2023/04/07 03:15:56;;;;;;;;;;;;;;;20.32;30.18;100527.11;103851;1286;61307;-83
2023/04/07 03:18:22;;;;;;;;;;;;;;;20.31;30.10;100527.30;104244;1289;61407;-82
2023/04/07 03:20:48;;;;;;;;;;;;;;;20.32;30.17;100523.18;103849;1286;61418;-83
2023/04/07 03:23:13;;;;;;;;;;;;;;;20.32;30.29;100527.45;103751;1285;61352;-83
2023/04/07 03:25:40;;;;;;;;;;;;;;;20.32;30.31;100530.85;103743;1291;61502;-83
2023/04/07 03:28:06;;;;;;;;;;;;;;;20.32;30.22;100530.50;103880;1286;61310;-83
2023/04/07 03:30:31;;;;;;;;;;;;;;;20.32;30.23;100533.19;103782;1286;61729;-83
2023/04/07 03:32:57;;;;;;;;;;;;;;;20.31;30.31;100533.95;103885;1286;61416;-83
2023/04/07 03:35:22;;;;;;;;;;;;;;;20.31;30.28;100536.80;103754;1292;61314;-83
2023/04/07 03:37:48;;;;;;;;;;;;;;;20.30;30.27;100538.09;103841;1286;62535;-83
2023/04/07 03:40:14;;;;;;;;;;;;;;;20.30;30.14;100541.48;103714;1291;61470;-83
2023/04/07 03:42:39;;;;;;;;;;;;;;;20.31;30.31;100542.56;103693;1286;61470;-83
2023/04/07 03:45:05;;;;;;;;;;;;;;;20.31;30.43;100545.55;103798;1286;61381;-82
2023/04/07 03:47:31;;;;;;;;;;;;;;;20.32;30.34;100548.36;103751;1291;74272;-84
2023/04/07 03:49:56;;;;;;;;;;;;;;;20.32;30.31;100550.48;103808;1286;61379;-82
2023/04/07 03:52:22;;;;;;;;;;;;;;;20.32;30.45;100554.95;103722;1290;62433;-83
2023/04/07 03:54:47;;;;;;;;;;;;;;;20.32;30.24;100557.10;103768;1291;61382;-83
2023/04/07 03:57:13;;;;;;;;;;;;;;;20.32;30.28;100561.42;103810;1289;61279;-84
2023/04/07 03:59:38;;;;;;;;;;;;;;;20.31;30.36;100559.48;103703;1285;74334;-84
2023/04/07 04:02:04;;;;;;;;;;;;;;;20.32;30.42;100561.91;103797;1286;61398;-84
2023/04/07 04:04:30;;;;;;;;;;;;;;;20.32;30.34;100562.67;103815;1286;61298;-83
2023/04/07 04:06:55;;;;;;;;;;;;;;;20.32;30.33;100565.89;103815;1286;61306;-83
2023/04/07 04:09:21;;;;;;;;;;;;;;;20.32;30.31;100566.60;103701;1286;61508;-84
2023/04/07 04:11:47;;;;;;;;;;;;;;;20.32;30.35;100569.64;103719;1291;61454;-83
2023/04/07 04:14:12;;;;;;;;;;;;;;;20.33;30.43;100569.57;103811;1286;61379;-84
2023/04/07 04:16:38;;;;;;;;;;;;;;;20.33;30.38;100571.85;103731;1291;61420;-84
2023/04/07 04:19:03;;;;;;;;;;;;;;;20.32;30.30;100572.63;103726;1290;61383;-83
2023/04/07 04:21:30;;;;;;;;;;;;;;;20.33;30.28;100576.16;103787;1286;61418;-83
2023/04/07 04:23:55;;;;;;;;;;;;;;;20.33;30.36;100575.06;103824;1286;61368;-83
2023/04/07 04:26:24;;;;;;;;;;;;;;;20.35;30.31;100581.73;103760;1289;61205;-83
2023/04/07 04:28:50;;;;;;;;;;;;;;;20.37;30.49;100582.31;103769;1287;62528;-81
2023/04/07 04:31:15;;;;;;;;;;;;;;;20.38;30.46;100587.08;103695;1286;61433;-84
2023/04/07 04:33:41;;;;;;;;;;;;;;;20.39;30.45;100589.64;103518;1287;61380;-83
2023/04/07 04:36:07;;;;;;;;;;;;;;;20.41;30.40;100591.48;103789;1286;62576;-83
2023/04/07 04:38:32;;;;;;;;;;;;;;;20.44;30.66;100597.20;103756;1286;61394;-84
2023/04/07 04:40:58;;;;;;;;;;;;;;;20.46;30.54;100597.42;104032;1286;61602;-83
2023/04/07 04:43:23;;;;;;;;;;;;;;;20.49;30.58;100600.39;103844;1291;61867;-83
2023/04/07 04:45:49;;;;;;;;;;;;;;;20.51;30.78;100601.86;103767;1292;61394;-83
2023/04/07 04:48:16;;;;;;;;;;;;;;;20.53;30.58;100606.18;103756;1286;61400;-83
2023/04/07 04:50:42;;;;;;;;;;;;;;;20.55;30.63;100607.83;103786;1286;61275;-83
2023/04/07 04:53:09;;;;;;;;;;;;;;;20.57;30.79;100609.11;103868;1286;61878;-83
2023/04/07 04:55:35;;;;;;;;;;;;;;;20.58;30.65;100610.44;103853;1291;61391;-84
2023/04/07 04:58:01;;;;;;;;;;;;;;;20.60;30.75;100614.41;103801;1292;62642;-85
2023/04/07 05:00:26;;;;;;;;;;;;;;;20.62;30.60;100613.04;103773;1286;61316;-83
2023/04/07 05:02:52;;;;;;;;;;;;;;;20.64;30.74;100613.83;103796;1289;61390;-83
2023/04/07 05:05:17;;;;;;;;;;;;;;;20.64;30.77;100620.20;103849;1289;61365;-82
2023/04/07 05:07:43;;;;;;;;;;;;;;;20.65;30.81;100624.81;103758;1286;61470;-83
2023/04/07 05:10:08;;;;;;;;;;;;;;;20.65;30.70;100628.20;103703;1286;61387;-84
2023/04/07 05:12:34;;;;;;;;;;;;;;;20.66;30.58;100632.10;103853;1291;62518;-84
2023/04/07 05:15:00;;;;;;;;;;;;;;;20.66;30.63;100633.00;103878;1285;61385;-83
2023/04/07 05:17:25;;;;;;;;;;;;;;;20.67;30.79;100639.20;103751;1285;72306;-83
2023/04/07 05:19:51;;;;;;;;;;;;;;;20.68;30.85;100639.84;103795;1286;61281;-83
2023/04/07 05:22:17;;;;;;;;;;;;;;;20.67;30.90;100643.27;103727;1286;61484;-83
2023/04/07 05:24:42;;;;;;;;;;;;;;;20.68;30.89;100650.37;103914;1286;61359;-83
2023/04/07 05:27:10;;;;;;;;;;;;;;;20.68;30.80;100650.86;103703;1291;61465;-83
2023/04/07 05:29:35;;;;;;;;;;;;;;;20.69;30.93;100651.73;103779;1286;61496;-83
2023/04/07 05:32:01;;;;;;;;;;;;;;;20.69;31.01;100652.60;103763;1286;61484;-83
2023/04/07 05:34:26;;;;;;;;;;;;;;;20.70;30.93;100657.01;104032;1288;61480;-83
2023/04/07 05:36:53;;;;;;;;;;;;;;;20.70;30.81;100657.59;103965;1286;61414;-83
2023/04/07 05:39:18;;;;;;;;;;;;;;;20.70;30.84;100661.10;103689;1286;61339;-83
2023/04/07 05:41:44;;;;;;;;;;;;;;;20.70;30.81;100659.17;103767;1286;61444;-83
2023/04/07 05:44:09;;;;;;;;;;;;;;;20.70;30.76;100661.11;103828;1286;62000;-83
2023/04/07 05:46:35;;;;;;;;;;;;;;;20.71;30.79;100663.02;103833;1286;62524;-83
2023/04/07 05:49:00;;;;;;;;;;;;;;;20.72;30.80;100661.89;103780;1289;61297;-83
2023/04/07 05:51:26;;;;;;;;;;;;;;;20.72;30.87;100666.00;103793;1286;61370;-83
2023/04/07 05:53:51;;;;;;;;;;;;;;;20.73;30.65;100673.45;103788;1286;61471;-83
2023/04/07 05:56:17;;;;;;;;;;;;;;;20.73;30.70;100674.34;103744;1291;61748;-82
2023/04/07 05:58:42;;;;;;;;;;;;;;;20.74;30.79;100676.23;103921;1286;61391;-84
2023/04/07 06:01:08;;;;;;;;;;;;;;;20.74;30.74;100676.38;103720;1288;61420;-83
2023/04/07 06:03:33;;;;;;;;;;;;;;;20.75;30.64;100673.33;103819;1288;61756;-83
2023/04/07 06:05:59;;;;;;;;;;;;;;;20.76;30.69;100680.92;103799;1287;61397;-83
2023/04/07 06:08:24;;;;;;;;;;;;;;;20.76;30.70;100682.48;103824;1286;61339;-83
2023/04/07 06:10:50;;;;;;;;;;;;;;;20.77;30.57;100684.25;103844;1286;61400;-84
2023/04/07 06:13:40;;;;;;;;;;;;;;;20.76;30.68;100684.99;103818;1286;61314;-83
2023/04/07 06:16:05;;;;;;;;;;;;;;;20.77;30.60;100691.95;103178;1297;73510;-83
2023/04/07 06:18:31;;;;;;;;;;;;;;;20.77;30.56;100697.33;103153;1292;61460;-83
2023/04/07 06:20:56;;;;;;;;;;;;;;;20.77;30.51;100699.83;103241;1293;61489;-83
2023/04/07 06:23:22;;;;;;;;;;;;;;;20.75;30.53;100704.75;103505;1294;61786;-83
2023/04/07 06:25:50;;;;;;;;;;;;;;;20.73;30.51;100706.36;103396;1294;61491;-84
2023/04/07 06:28:17;;;;;;;;;;;;;;;20.72;30.45;100708.90;103069;1294;71380;-85
2023/04/07 06:30:42;;;;;;;;;;;;;;;20.71;30.39;100707.95;103280;1295;61420;-84
2023/04/07 06:33:08;;;;;;;;;;;;;;;20.69;30.27;100716.80;103172;1295;61414;-84
2023/04/07 06:35:33;;;;;;;;;;;;;;;20.68;30.40;100722.40;103196;1294;61599;-84
2023/04/07 06:37:59;;;;;;;;;;;;;;;20.68;30.29;100725.84;103495;1294;61409;-82
2023/04/07 06:40:24;;;;;;;;;;;;;;;20.66;30.24;100727.19;103229;1295;61462;-83
2023/04/07 06:42:53;;;;;;;;;;;;;;;20.65;30.24;100729.96;103194;1293;61378;-83
2023/04/07 06:45:19;;;;;;;;;;;;;;;20.64;30.36;100731.29;103112;1293;61335;-84
2023/04/07 06:47:44;;;;;;;;;;;;;;;20.63;30.13;100731.68;103093;1295;61335;-84
2023/04/07 06:50:10;;;;;;;;;;;;;;;20.63;30.09;100737.42;103365;1295;62072;-81
2023/04/07 06:52:35;;;;;;;;;;;;;;;20.63;29.99;100737.26;103284;1298;61372;-83
2023/04/07 06:55:01;;;;;;;;;;;;;;;20.62;30.18;100741.96;103703;1289;61500;-83
2023/04/07 06:57:27;;;;;;;;;;;;;;;20.62;30.00;100740.23;103779;1289;61426;-83
2023/04/07 06:59:53;;;;;;;;;;;;;;;20.61;30.04;100743.65;103798;1291;61474;-83
2023/04/07 07:02:18;;;;;;;;;;;;;;;20.61;29.86;100746.34;103982;1290;61747;-84
2023/04/07 07:04:44;;;;;;;;;;;;;;;20.60;29.81;100746.57;103503;1289;602048;-84
2023/04/07 07:07:09;;;;;;;;;;;;;;;20.60;29.84;100747.64;104054;1288;61397;-84
2023/04/07 07:09:35;;;;;;;;;;;;;;;20.59;29.77;100751.11;103669;1288;61559;-83
2023/04/07 07:12:01;;;;;;;;;;;;;;;20.58;29.74;100753.12;103700;1290;63544;-83
2023/04/07 07:14:27;;;;;;;;;;;;;;;20.58;29.60;100755.84;103744;1289;61445;-83
2023/04/07 07:16:52;;;;;;;;;;;;;;;20.58;29.59;100755.84;103650;1289;61465;-84
2023/04/07 07:19:18;;;;;;;;;;;;;;;20.58;29.64;100759.79;103695;1289;61390;-83
2023/04/07 07:21:43;;;;;;;;;;;;;;;20.57;29.73;100759.66;103719;1291;61521;-82
2023/04/07 07:24:09;;;;;;;;;;;;;;;20.56;29.48;100762.56;103515;1289;61410;-84
2023/04/07 07:26:34;;;;;;;;;;;;;;;20.57;29.41;100766.65;103678;1286;61397;-83
2023/04/07 07:29:00;;;;;;;;;;;;;;;20.55;29.31;100765.31;103775;1286;61432;-83
2023/04/07 07:31:25;;;;;;;;;;;;;;;20.55;29.14;100773.02;103778;1286;62561;-84
2023/04/07 07:33:51;;;;;;;;;;;;;;;20.57;28.92;100777.73;103809;1286;62206;-84
2023/04/07 07:36:17;;;;;;;;;;;;;;;20.57;28.90;100779.67;103770;1286;61322;-84
2023/04/07 07:38:43;;;;;;;;;;;;;;;20.58;28.81;100781.05;103701;1288;61425;-83
2023/04/07 07:41:09;;;;;;;;;;;;;;;20.58;28.83;100781.20;103759;1291;61410;-84
2023/04/07 07:43:35;;;;;;;;;;;;;;;20.57;28.80;100780.20;103884;1286;61449;-83
2023/04/07 07:46:01;;;;;;;;;;;;;;;20.57;28.89;100782.14;103820;1285;61480;-84
2023/04/07 07:48:27;;;;;;;;;;;;;;;20.59;28.75;100782.77;104020;1286;61295;-83
2023/04/07 07:50:52;;;;;;;;;;;;;;;20.59;28.77;100788.27;103906;1286;61867;-84
2023/04/07 07:53:18;;;;;;;;;;;;;;;20.58;28.67;100788.56;103876;1286;74423;-84
2023/04/07 07:55:44;;;;;;;;;;;;;;;20.55;28.68;100786.08;103707;1289;61339;-84
2023/04/07 07:58:10;;;;;;;;;;;;;;;20.51;28.48;100786.86;103851;1286;61454;-85
2023/04/07 08:00:35;;;;;;;;;;;;;;;20.47;28.69;100785.73;103839;1289;61407;-83
2023/04/07 08:03:01;;;;;;;;;;;;;;;20.44;28.52;100789.52;103825;1286;62567;-84
2023/04/07 08:05:26;;;;;;;;;;;;;;;20.43;28.34;100784.34;103910;1291;61340;-84
2023/04/07 08:07:54;;;;;;;;;;;;;;;20.43;28.26;100787.23;103872;1286;59740;-83
2023/04/07 08:10:20;;;;;;;;;;;;;;;20.40;28.07;100786.00;103871;1286;61269;-84
2023/04/07 08:12:46;;;;;;;;;;;;;;;20.40;28.11;100796.55;103987;1286;61310;-84
2023/04/07 08:15:13;;;;;;;;;;;;;;;20.38;28.08;100799.95;103923;1289;61500;-84
2023/04/07 08:17:39;;;;;;;;;;;;;;;20.34;27.98;100800.55;103774;1286;61362;-84
2023/04/07 08:20:06;;;;;;;;;;;;;;;20.33;28.10;100801.52;103879;1286;61480;-84
2023/04/07 08:22:32;;;;;;;;;;;;;;;20.31;27.98;100802.77;103863;1286;61316;-84
2023/04/07 08:24:57;;;;;;;;;;;;;;;20.27;28.07;100804.78;103736;1286;62544;-82
2023/04/07 08:27:23;;;;;;;;;;;;;;;20.24;27.95;100802.28;103885;1286;61380;-82
2023/04/07 08:29:58;;;;;;;;;;;;;;;20.23;27.94;100804.15;103760;1291;61434;-84
2023/04/07 08:32:23;;;;;;;;;;;;;;;20.21;27.80;100806.09;103889;1288;73530;-85
2023/04/07 08:34:49;;;;;;;;;;;;;;;20.16;27.88;100801.95;103712;1286;61495;-82
2023/04/07 08:37:15;;;;;;;;;;;;;;;20.16;27.90;100800.91;103801;1286;61348;-84
2023/04/07 08:39:41;;;;;;;;;;;;;;;20.14;27.91;100799.22;103820;1286;63245;-83
2023/04/07 08:42:07;;;;;;;;;;;;;;;20.13;27.81;100798.42;103785;1286;61282;-83
2023/04/07 08:44:33;;;;;;;;;;;;;;;20.15;27.88;100793.95;103829;1286;61843;-83
2023/04/07 08:46:59;;;;;;;;;;;;;;;20.21;27.78;100800.02;103807;1291;61401;-83
2023/04/07 08:49:24;;;;;;;;;;;;;;;20.25;27.76;100791.13;104149;1289;62481;-83
2023/04/07 08:51:50;;;;;;;;;;;;;;;20.33;27.83;100796.37;103943;1286;61404;-83
2023/04/07 08:54:21;;;;;;;;;;;;;;;20.39;27.68;100801.48;103868;1289;61381;-84
2023/04/07 08:56:47;;;;;;;;;;;;;;;20.45;27.85;100806.06;103902;1286;75239;-83
2023/04/07 08:59:14;;;;;;;;;;;;;;;20.51;27.83;100802.29;104024;1286;62092;-82
2023/04/07 09:01:40;;;;;;;;;;;;;;;20.57;27.89;100806.33;104069;1286;61347;-82
2023/04/07 09:04:06;;;;;;;;;;;;;;;20.61;27.88;100806.05;103961;1286;62450;-83
2023/04/07 09:06:33;;;;;;;;;;;;;;;20.66;28.19;100810.34;104097;1286;61409;-84
2023/04/07 09:08:59;;;;;;;;;;;;;;;20.70;28.29;100808.86;103912;1286;61384;-83
2023/04/07 09:11:28;;;;;;;;;;;;;;;20.74;28.24;100811.63;103967;1291;61310;-83
2023/04/07 09:13:54;;;;;;;;;;;;;;;20.78;28.51;100816.15;104000;1286;72602;-83
2023/04/07 09:16:19;;;;;;;;;;;;;;;20.83;28.59;100814.92;103961;1286;62534;-83
2023/04/07 09:18:45;;;;;;;;;;;;;;;20.87;28.66;100812.30;103929;1286;61406;-83
2023/04/07 09:21:10;;;;;;;;;;;;;;;20.92;28.85;100811.27;103882;1286;62535;-84
2023/04/07 09:23:36;;;;;;;;;;;;;;;20.95;28.92;100814.11;104240;1286;61260;-83
2023/04/07 09:26:21;;;;;;;;;;;;;;;20.98;29.15;100808.33;103966;1286;72504;-82
2023/04/07 09:28:49;;;;;;;;;;;;;;;21.01;29.28;100817.95;103937;1286;76003;-82
2023/04/07 09:31:15;;;;;;;;;;;;;;;21.04;29.36;100816.33;104013;1290;61282;-83
2023/04/07 09:33:41;;;;;;;;;;;;;;;21.07;29.58;100816.14;103918;1286;61307;-82
2023/04/07 09:36:07;;;;;;;;;;;;;;;21.09;29.68;100822.21;103860;1286;62033;-83
2023/04/07 09:38:56;;;;;;;;;;;;;;;21.12;29.75;100825.29;103940;1290;61483;-82
2023/04/07 09:41:21;;;;;;;;;;;;;;;21.14;29.86;100816.31;103294;1294;62008;-82
2023/04/07 09:43:47;;;;;;;;;;;;;;;21.16;29.77;100811.53;103135;1296;61398;-83
2023/04/07 09:46:13;;;;;;;;;;;;;;;21.18;30.01;100810.34;103239;1294;61404;-82
2023/04/07 09:48:39;;;;;;;;;;;;;;;21.20;30.01;100816.09;103308;1294;61431;-83
2023/04/07 09:51:05;;;;;;;;;;;;;;;21.21;30.05;100816.92;103117;1295;61588;-83
2023/04/07 09:53:40;;;;;;;;;;;;;;;21.23;29.98;100821.06;103235;1295;61426;-82
2023/04/07 09:56:05;;;;;;;;;;;;;;;21.25;30.15;100822.71;103179;1293;72361;-84
2023/04/07 09:58:31;;;;;;;;;;;;;;;21.26;30.13;100821.23;103227;1294;61445;-83
2023/04/07 10:00:57;;;;;;;;;;;;;;;21.28;30.10;100823.95;103295;1294;61365;-83
2023/04/07 10:03:22;;;;;;;;;;;;;;;21.28;30.34;100820.53;103176;1294;62037;-83
2023/04/07 10:05:49;;;;;;;;;;;;;;;21.29;30.45;100824.40;103154;1299;61871;-83
2023/04/07 10:08:15;;;;;;;;;;;;;;;21.29;30.59;100831.21;103118;1294;61287;-83
2023/04/07 10:10:41;;;;;;;;;;;;;;;21.29;30.57;100833.53;103054;1295;61395;-83
2023/04/07 10:13:07;;;;;;;;;;;;;;;21.29;30.67;100832.31;103169;1293;61297;-83
2023/04/07 10:15:32;;;;;;;;;;;;;;;21.29;30.80;100834.80;103226;1293;61556;-84
2023/04/07 10:17:58;;;;;;;;;;;;;;;21.29;30.87;100839.30;103189;1296;61420;-84
2023/04/07 10:20:23;;;;;;;;;;;;;;;21.29;30.94;100839.11;103945;1291;61314;-84
2023/04/07 10:22:50;;;;;;;;;;;;;;;21.28;31.08;100846.86;104014;1286;61412;-83
2023/04/07 10:25:17;;;;;;;;;;;;;;;21.27;31.01;100845.81;103925;1287;61378;-82
2023/04/07 10:27:49;;;;;;;;;;;;;;;21.26;31.10;100845.51;103919;1286;61803;-82
2023/04/07 10:30:16;;;;;;;;;;;;;;;21.26;31.15;100851.80;103908;1286;72543;-82
2023/04/07 10:32:48;;;;;;;;;;;;;;;21.26;31.22;100846.61;103772;1286;75617;-83
2023/04/07 10:35:13;;;;;;;;;;;;;;;21.25;31.10;100845.23;103898;1290;59984;-83
2023/04/07 10:37:40;;;;;;;;;;;;;;;21.24;31.14;100851.02;103793;1286;61375;-84
2023/04/07 10:40:18;;;;;;;;;;;;;;;21.24;31.06;100849.23;103701;1286;62590;-84
2023/04/07 10:42:44;;;;;;;;;;;;;;;21.23;31.16;100850.73;103818;1286;75625;-82
2023/04/07 10:45:11;;;;;;;;;;;;;;;21.23;31.26;100853.63;103843;1286;61328;-83
2023/04/07 10:47:57;;;;;;;;;;;;;;;21.23;31.25;100855.77;103798;1286;61269;-83
2023/04/07 10:50:23;;;;;;;;;;;;;;;21.23;31.36;100856.15;103698;1286;73510;-83
2023/04/07 10:52:49;;;;;;;;;;;;;;;21.22;31.28;100863.15;103532;1286;61493;-82
2023/04/07 10:55:33;;;;;;;;;;;;;;;21.22;31.42;100860.17;103848;1285;61845;-83
2023/04/07 10:58:15;;;;;;;;;;;;;;;21.22;31.55;100864.63;103755;1285;61315;-83
2023/04/07 11:00:40;;;;;;;;;;;;;;;21.21;31.50;100870.56;103812;1289;72618;-83
2023/04/07 11:03:11;;;;;;;;;;;;;;;21.21;31.57;100867.39;103725;1289;61365;-82
2023/04/07 11:05:38;;;;;;;;;;;;;;;21.21;31.45;100868.29;104117;1289;61443;-83
2023/04/07 11:08:05;;;;;;;;;;;;;;;21.21;31.67;100865.56;103967;1288;61896;-82
2023/04/07 11:10:31;;;;;;;;;;;;;;;21.21;31.67;100865.26;103791;1286;72606;-83
2023/04/07 11:13:09;;;;;;;;;;;;;;;21.22;31.82;100867.15;103496;1294;61435;-84
2023/04/07 11:15:35;;;;;;;;;;;;;;;21.22;31.72;100864.48;103734;1288;62559;-83
2023/04/07 11:18:06;;;;;;;;;;;;;;;21.22;31.71;100866.79;103759;1286;61272;-83
2023/04/07 11:20:51;;;;;;;;;;;;;;;21.22;31.74;100866.94;103870;1289;73635;-83
2023/04/07 11:23:17;;;;;;;;;;;;;;;21.21;31.86;100867.90;103947;1289;75261;-83
2023/04/07 11:25:44;;;;;;;;;;;;;;;21.22;31.84;100874.09;103773;1286;61318;-84
2023/04/07 11:28:11;;;;;;;;;;;;;;;21.23;32.03;100876.34;103688;1286;61158;-83
2023/04/07 11:30:37;;;;;;;;;;;;;;;21.23;31.88;100876.33;103728;1291;73929;-83
2023/04/07 11:33:03;;;;;;;;;;;;;;;21.23;31.96;100871.33;103765;1286;61403;-83
2023/04/07 11:35:28;;;;;;;;;;;;;;;21.24;32.00;100866.48;103473;1288;61315;-83
2023/04/07 11:37:58;;;;;;;;;;;;;;;21.24;31.94;100856.27;103723;1286;61381;-84
2023/04/07 11:40:33;;;;;;;;;;;;;;;21.24;31.92;100859.10;103663;1291;72520;-84
2023/04/07 11:43:00;;;;;;;;;;;;;;;21.24;32.05;100860.37;103758;1289;75690;-83
2023/04/07 11:45:26;;;;;;;;;;;;;;;21.24;32.00;100861.80;104011;1286;61839;-83
2023/04/07 11:47:52;;;;;;;;;;;;;;;21.25;32.15;100864.24;103839;1289;61297;-83
2023/04/07 11:50:38;;;;;;;;;;;;;;;21.25;31.99;100856.73;103541;1289;61422;-83
2023/04/07 11:53:03;;;;;;;;;;;;;;;21.25;32.09;100865.27;103639;1289;74502;-83
2023/04/07 11:55:29;;;;;;;;;;;;;;;21.26;32.37;100865.61;103627;1286;61369;-83
2023/04/07 11:57:55;;;;;;;;;;;;;;;21.26;32.20;100863.08;103677;1286;61359;-83
2023/04/07 12:00:23;;;;;;;;;;;;;;;21.27;32.25;100857.63;103574;1291;61407;-83
2023/04/07 12:02:48;;;;;;;;;;;;;;;21.27;32.19;100864.44;103753;1289;61389;-84
2023/04/07 12:05:14;;;;;;;;;;;;;;;21.27;32.35;100864.60;103718;1286;61404;-84
2023/04/07 12:07:40;;;;;;;;;;;;;;;21.28;32.32;100867.60;103782;1286;61746;-83
2023/04/07 12:10:24;;;;;;;;;;;;;;;21.28;32.32;100872.09;103728;1291;61394;-84
2023/04/07 12:12:50;;;;;;;;;;;;;;;21.29;32.45;100870.61;103991;1286;75260;-82
2023/04/07 12:15:16;;;;;;;;;;;;;;;21.29;32.38;100873.61;104014;1285;61314;-82
2023/04/07 12:17:48;;;;;;;;;;;;;;;21.29;32.32;100878.64;103750;1286;61400;-83
2023/04/07 12:20:14;;;;;;;;;;;;;;;21.29;32.39;100878.27;103820;1286;72683;-83
2023/04/07 12:22:40;;;;;;;;;;;;;;;21.30;32.42;100879.66;103775;1286;61311;-83
2023/04/07 12:25:05;;;;;;;;;;;;;;;21.30;32.64;100881.79;103817;1285;61476;-83